createdAt,value
2023-04-17T00:01:55.923Z,24.35
2023-04-17T00:04:24.404Z,28.92
2023-04-17T00:06:53.959Z,23.67
2023-04-17T00:09:22.407Z,27.20
2023-04-17T00:11:50.783Z,28.60
2023-04-17T00:14:19.104Z,30.00
2023-04-17T00:16:47.497Z,27.67
2023-04-17T00:19:20.047Z,29.08
2023-04-17T00:21:48.400Z,28.98
2023-04-17T00:24:16.748Z,23.17
2023-04-17T00:26:45.066Z,27.73
2023-04-17T00:29:13.469Z,27.27
2023-04-17T00:31:41.888Z,25.63
2023-04-17T00:34:10.588Z,24.38
2023-04-17T00:36:40.281Z,27.02
2023-04-17T00:39:08.634Z,26.20
2023-04-17T00:41:37.067Z,27.02
2023-04-17T00:44:05.556Z,26.92
2023-04-17T00:46:34.121Z,26.52
2023-04-17T00:49:02.493Z,21.95
2023-04-17T00:51:31.667Z,21.40
2023-04-17T00:54:02.199Z,23.80
2023-04-17T00:56:31.553Z,25.67
2023-04-17T00:59:02.830Z,25.00
2023-04-17T01:01:31.287Z,27.33
2023-04-17T01:04:01.897Z,23.77
2023-04-17T01:06:30.403Z,29.58
2023-04-17T01:09:00.703Z,25.27
2023-04-17T01:11:29.403Z,24.10
2023-04-17T01:13:57.923Z,28.75
2023-04-17T01:16:26.401Z,25.55
2023-04-17T01:18:54.882Z,23.27
2023-04-17T01:21:23.194Z,26.30
2023-04-17T01:23:53.281Z,26.45
2023-04-17T01:26:25.824Z,29.85
2023-04-17T01:28:56.317Z,29.65
2023-04-17T01:31:25.613Z,29.85
2023-04-17T01:33:54.365Z,25.77
2023-04-17T01:36:23.174Z,31.02
2023-04-17T01:38:51.466Z,30.27
2023-04-17T01:41:20.204Z,28.88
2023-04-17T01:43:50.407Z,30.98
2023-04-17T01:46:19.174Z,25.83
2023-04-17T01:48:47.806Z,38.20
2023-04-17T01:51:16.162Z,28.67
2023-04-17T01:53:44.392Z,26.23
2023-04-17T01:56:13.855Z,31.13
2023-04-17T01:58:43.041Z,28.42
2023-04-17T02:01:13.092Z,26.23
2023-04-17T02:03:42.174Z,26.30
2023-04-17T02:06:10.776Z,28.17
2023-04-17T02:08:39.021Z,27.67
2023-04-17T02:11:07.431Z,30.48
2023-04-17T02:13:35.955Z,29.90
2023-04-17T02:16:04.628Z,29.52
2023-04-17T02:18:34.467Z,29.30
2023-04-17T02:21:02.758Z,31.33
2023-04-17T02:23:31.049Z,31.42
2023-04-17T02:25:59.330Z,27.48
2023-04-17T02:28:27.774Z,32.20
2023-04-17T02:30:56.262Z,29.90
2023-04-17T02:33:24.692Z,28.55
2023-04-17T02:35:55.459Z,28.20
2023-04-17T02:38:30.603Z,28.02
2023-04-17T02:40:59.348Z,28.90
2023-04-17T02:43:30.407Z,24.40
2023-04-17T02:45:58.827Z,30.73
2023-04-17T02:48:28.642Z,31.52
2023-04-17T02:50:58.765Z,28.05
2023-04-17T02:53:29.525Z,28.25
2023-04-17T02:55:57.845Z,31.38
2023-04-17T02:58:26.668Z,33.33
2023-04-17T03:01:02.420Z,31.67
2023-04-17T03:03:35.205Z,30.90
2023-04-17T03:06:08.379Z,36.60
2023-04-17T03:08:38.663Z,31.15
2023-04-17T03:11:07.492Z,33.42
2023-04-17T03:13:37.153Z,32.17
2023-04-17T03:16:06.348Z,29.73
2023-04-17T03:18:41.054Z,34.97
2023-04-17T03:21:11.090Z,32.78
2023-04-17T03:23:39.473Z,30.73
2023-04-17T03:26:09.421Z,29.88
2023-04-17T03:28:38.387Z,28.80
2023-04-17T03:31:07.305Z,30.13
2023-04-17T03:33:37.967Z,33.15
2023-04-17T03:36:07.133Z,31.42
2023-04-17T03:38:39.496Z,35.25
2023-04-17T03:41:10.284Z,34.95
2023-04-17T03:43:39.474Z,28.02
2023-04-17T03:46:10.532Z,33.58
2023-04-17T03:48:40.159Z,31.27
2023-04-17T03:51:08.578Z,30.05
2023-04-17T03:53:40.253Z,28.42
2023-04-17T03:56:11.925Z,29.42
2023-04-17T03:58:43.232Z,31.10
2023-04-17T04:01:14.743Z,30.08
2023-04-17T04:03:57.935Z,32.58
2023-04-17T04:06:29.949Z,29.88
2023-04-17T04:09:00.544Z,34.22
2023-04-17T04:11:29.422Z,30.88
2023-04-17T04:13:57.770Z,32.20
2023-04-17T04:16:26.198Z,32.28
2023-04-17T04:19:01.191Z,31.35
2023-04-17T04:21:30.513Z,28.30
2023-04-17T04:24:00.711Z,29.95
2023-04-17T04:26:28.918Z,29.83
2023-04-17T04:29:00.198Z,25.92
2023-04-17T04:31:35.758Z,26.25
2023-04-17T04:34:06.155Z,30.52
2023-04-17T04:36:36.308Z,28.92
2023-04-17T04:39:30.113Z,28.58
2023-04-17T04:42:05.848Z,28.85
2023-04-17T04:44:44.551Z,31.05
2023-04-17T04:47:13.837Z,31.50
2023-04-17T04:49:42.360Z,33.20
2023-04-17T04:52:11.014Z,30.70
2023-04-17T04:54:41.384Z,31.42
2023-04-17T04:57:10.002Z,31.48
2023-04-17T04:59:39.461Z,32.75
2023-04-17T05:02:33.943Z,29.58
2023-04-17T05:05:04.354Z,29.77
2023-04-17T05:07:35.215Z,27.75
2023-04-17T05:10:07.417Z,28.30
2023-04-17T05:12:40.920Z,32.15
2023-04-17T05:15:11.948Z,32.88
2023-04-17T05:17:41.905Z,31.50
2023-04-17T05:20:12.304Z,35.03
2023-04-17T05:22:48.150Z,29.80
2023-04-17T05:25:19.815Z,32.58
2023-04-17T05:27:49.202Z,29.75
2023-04-17T05:30:18.638Z,30.48
2023-04-17T05:32:52.076Z,28.65
2023-04-17T05:35:33.584Z,31.38
2023-04-17T05:38:02.325Z,27.52
2023-04-17T05:40:32.685Z,31.35
2023-04-17T05:43:08.296Z,33.67
2023-04-17T05:45:37.325Z,35.15
2023-04-17T05:48:09.350Z,29.17
2023-04-17T05:50:38.580Z,32.05
2023-04-17T05:53:07.885Z,31.45
2023-04-17T05:55:47.922Z,31.13
2023-04-17T05:58:23.859Z,28.20
2023-04-17T06:00:56.307Z,29.60
2023-04-17T06:03:26.152Z,36.25
2023-04-17T06:06:05.358Z,31.48
2023-04-17T06:08:34.186Z,30.90
2023-04-17T06:11:03.934Z,28.70
2023-04-17T06:13:32.392Z,29.95
2023-04-17T06:16:01.234Z,23.83
2023-04-17T06:18:29.513Z,32.65
2023-04-17T06:20:57.870Z,31.67
2023-04-17T06:23:29.665Z,28.38
2023-04-17T06:25:58.109Z,27.80
2023-04-17T06:28:27.823Z,30.30
2023-04-17T06:30:57.396Z,27.73
2023-04-17T06:33:26.908Z,30.80
2023-04-17T06:35:56.333Z,25.60
2023-04-17T06:38:38.705Z,24.35
2023-04-17T06:41:07.136Z,28.67
2023-04-17T06:43:43.211Z,23.77
2023-04-17T06:46:16.057Z,28.30
2023-04-17T06:48:44.341Z,32.67
2023-04-17T06:51:13.012Z,27.42
2023-04-17T06:53:41.328Z,27.10
2023-04-17T06:56:09.676Z,24.08
2023-04-17T06:58:44.226Z,25.95
2023-04-17T07:01:13.580Z,24.65
2023-04-17T07:03:43.156Z,25.83
2023-04-17T07:06:11.755Z,27.38
2023-04-17T07:08:40.304Z,26.75
2023-04-17T07:11:09.069Z,20.75
2023-04-17T07:13:47.133Z,24.85
2023-04-17T07:16:33.936Z,26.48
2023-04-17T07:19:02.379Z,23.13
2023-04-17T07:21:30.607Z,23.98
2023-04-17T07:23:59.062Z,21.90
2023-04-17T07:26:31.983Z,24.65
2023-04-17T07:29:06.255Z,21.70
2023-04-17T07:31:37.886Z,25.63
2023-04-17T07:34:06.354Z,24.40
2023-04-17T07:36:34.792Z,21.25
2023-04-17T07:39:03.648Z,25.13
2023-04-17T07:41:35.482Z,19.85
2023-04-17T07:44:06.154Z,20.20
2023-04-17T07:46:34.724Z,21.02
2023-04-17T07:49:03.139Z,22.10
2023-04-17T07:51:34.976Z,24.17
2023-04-17T07:54:06.235Z,23.00
2023-04-17T07:56:35.026Z,21.83
2023-04-17T07:59:04.849Z,17.88
2023-04-17T08:01:33.867Z,20.75
2023-04-17T08:04:02.455Z,21.83
2023-04-17T08:06:32.438Z,17.50
2023-04-17T08:09:02.336Z,21.25
2023-04-17T08:11:30.751Z,19.70
2023-04-17T08:13:59.289Z,17.30
2023-04-17T08:16:29.187Z,18.83
2023-04-17T08:18:57.470Z,18.35
2023-04-17T08:21:26.865Z,17.65
2023-04-17T08:23:55.675Z,22.48
2023-04-17T08:26:24.133Z,27.27
2023-04-17T08:28:53.633Z,21.85
2023-04-17T08:31:22.017Z,27.15
2023-04-17T08:33:59.519Z,17.27
2023-04-17T08:36:34.867Z,17.75
2023-04-17T08:39:04.653Z,17.98
2023-04-17T08:41:40.682Z,18.20
2023-04-17T08:44:09.175Z,20.13
2023-04-17T08:46:38.537Z,20.67
2023-04-17T08:49:08.295Z,17.77
2023-04-17T08:51:36.672Z,19.80
2023-04-17T08:54:05.114Z,22.20
2023-04-17T08:56:33.674Z,22.00
2023-04-17T08:59:02.173Z,24.45
2023-04-17T09:01:31.077Z,24.05
2023-04-17T09:03:59.634Z,20.85
2023-04-17T09:06:49.826Z,22.17
2023-04-17T09:09:18.639Z,24.60
2023-04-17T09:11:46.896Z,21.27
2023-04-17T09:14:30.431Z,20.77
2023-04-17T09:16:58.697Z,20.38
2023-04-17T09:19:29.739Z,23.50
2023-04-17T09:22:17.885Z,23.60
2023-04-17T09:24:46.288Z,19.08
2023-04-17T09:27:21.764Z,22.45
2023-04-17T09:30:02.639Z,17.67
2023-04-17T09:32:32.585Z,19.20
2023-04-17T09:35:03.646Z,22.73
2023-04-17T09:37:51.882Z,19.15
2023-04-17T09:40:21.563Z,18.67
2023-04-17T09:43:00.237Z,18.75
2023-04-17T09:45:33.280Z,18.35
2023-04-17T09:48:01.931Z,19.35
2023-04-17T09:50:31.284Z,21.10
2023-04-17T09:53:01.491Z,22.10
2023-04-17T09:55:31.390Z,17.30
2023-04-17T09:58:02.854Z,20.95
2023-04-17T10:00:32.080Z,18.98
2023-04-17T10:03:01.295Z,16.70
2023-04-17T10:05:32.461Z,17.35
2023-04-17T10:08:02.653Z,17.08
2023-04-17T10:10:33.970Z,19.30
2023-04-17T10:13:06.596Z,22.38
2023-04-17T10:15:35.635Z,20.65
2023-04-17T10:18:23.446Z,14.90
2023-04-17T10:20:53.776Z,21.63
2023-04-17T10:23:44.794Z,20.65
2023-04-17T10:26:46.508Z,17.58
2023-04-17T10:29:14.870Z,15.98
2023-04-17T10:32:24.417Z,17.45
2023-04-17T10:34:54.466Z,20.45
2023-04-17T10:37:53.800Z,18.60
2023-04-17T10:40:25.057Z,16.58
2023-04-17T10:43:04.575Z,15.13
2023-04-17T10:45:57.214Z,17.00
2023-04-17T10:48:31.125Z,13.77
2023-04-17T10:51:10.695Z,15.20
2023-04-17T10:53:51.978Z,14.15
2023-04-17T10:56:27.126Z,12.85
2023-04-17T10:58:59.672Z,14.13
2023-04-17T11:01:31.034Z,12.95
2023-04-17T11:04:00.944Z,12.77
2023-04-17T11:06:31.374Z,13.73
2023-04-17T11:09:00.514Z,17.95
2023-04-17T11:11:43.590Z,17.02
2023-04-17T11:14:15.175Z,15.80
2023-04-17T11:16:45.242Z,12.70
2023-04-17T11:19:18.195Z,11.88
2023-04-17T11:21:46.858Z,15.90
2023-04-17T11:24:15.736Z,14.27
2023-04-17T11:26:46.290Z,14.45
2023-04-17T11:29:18.581Z,13.55
2023-04-17T11:31:47.877Z,16.30
2023-04-17T11:34:17.068Z,18.90
2023-04-17T11:36:50.511Z,14.43
2023-04-17T11:39:19.200Z,13.32
2023-04-17T11:41:49.610Z,14.88
2023-04-17T11:44:20.334Z,15.02
2023-04-17T11:46:51.289Z,16.33
2023-04-17T11:49:26.602Z,15.05
2023-04-17T11:51:55.180Z,12.45
2023-04-17T11:54:37.905Z,14.13
2023-04-17T11:57:12.803Z,17.45
2023-04-17T11:59:42.894Z,14.68
2023-04-17T12:02:11.428Z,14.63
2023-04-17T12:04:40.861Z,16.63
2023-04-17T12:07:23.929Z,12.80
2023-04-17T12:09:57.731Z,17.48
2023-04-17T12:12:27.657Z,14.98
2023-04-17T12:14:56.158Z,14.43
2023-04-17T12:17:24.621Z,18.90
2023-04-17T12:19:52.980Z,15.65
2023-04-17T12:22:21.284Z,16.77
2023-04-17T12:24:49.626Z,19.70
2023-04-17T12:27:39.296Z,15.32
2023-04-17T12:30:08.792Z,18.23
2023-04-17T12:32:38.208Z,17.63
2023-04-17T12:35:11.128Z,14.25
2023-04-17T12:38:05.127Z,17.95
2023-04-17T12:40:33.516Z,17.10
2023-04-17T12:43:04.407Z,16.35
2023-04-17T12:45:37.282Z,15.77
2023-04-17T12:48:06.374Z,13.70
2023-04-17T12:50:40.565Z,14.60
2023-04-17T12:53:09.017Z,16.10
2023-04-17T12:55:39.147Z,12.75
2023-04-17T12:58:12.815Z,12.85
2023-04-17T13:00:44.037Z,15.75
2023-04-17T13:03:16.075Z,12.70
2023-04-17T13:05:45.316Z,12.18
2023-04-17T13:08:15.241Z,11.27
2023-04-17T13:10:43.688Z,13.02
2023-04-17T13:13:13.769Z,13.98
2023-04-17T13:15:42.755Z,11.27
2023-04-17T13:18:11.545Z,10.05
2023-04-17T13:20:44.131Z,13.60
2023-04-17T13:23:15.100Z,10.35
2023-04-17T13:25:46.070Z,13.02
2023-04-17T13:28:15.870Z,10.25
2023-04-17T13:30:44.876Z,12.27
2023-04-17T13:33:13.203Z,11.07
2023-04-17T13:35:42.287Z,10.27
2023-04-17T13:38:10.773Z,15.98
2023-04-17T13:40:39.123Z,11.80
2023-04-17T13:43:07.498Z,9.70
2023-04-17T13:45:37.232Z,12.30
2023-04-17T13:48:05.734Z,10.80
2023-04-17T13:50:34.083Z,9.43
2023-04-17T13:53:02.503Z,12.38
2023-04-17T13:55:30.964Z,11.45
2023-04-17T13:57:59.538Z,10.93
2023-04-17T14:00:27.965Z,9.75
2023-04-17T14:02:57.859Z,12.73
2023-04-17T14:05:26.370Z,8.48
2023-04-17T14:07:54.773Z,12.65
2023-04-17T14:10:23.220Z,12.85
2023-04-17T14:12:51.503Z,11.05
2023-04-17T14:15:20.122Z,12.60
2023-04-17T14:17:50.916Z,8.30
2023-04-17T14:20:22.059Z,9.43
2023-04-17T14:22:51.050Z,10.20
2023-04-17T14:25:19.444Z,11.70
2023-04-17T14:27:47.711Z,8.15
2023-04-17T14:30:16.592Z,13.43
2023-04-17T14:32:45.038Z,6.07
2023-04-17T14:35:16.570Z,7.53
2023-04-17T14:37:46.373Z,6.50
2023-04-17T14:40:15.248Z,8.60
2023-04-17T14:42:53.465Z,6.65
2023-04-17T14:45:23.278Z,10.65
2023-04-17T14:47:51.691Z,6.47
2023-04-17T14:50:23.751Z,9.38
2023-04-17T14:52:55.755Z,10.30
2023-04-17T14:55:24.510Z,7.72
2023-04-17T14:57:53.743Z,10.88
2023-04-17T15:00:25.349Z,7.75
2023-04-17T15:02:53.857Z,11.68
2023-04-17T15:05:22.781Z,6.88
2023-04-17T15:07:51.542Z,7.93
2023-04-17T15:10:21.428Z,10.68
2023-04-17T15:12:49.692Z,9.95
2023-04-17T15:15:18.016Z,10.15
2023-04-17T15:17:46.637Z,9.20
2023-04-17T15:20:15.040Z,13.38
2023-04-17T15:22:44.031Z,11.02
2023-04-17T15:25:12.372Z,9.25
2023-04-17T15:27:42.168Z,9.45
2023-04-17T15:30:11.547Z,8.35
2023-04-17T15:32:39.926Z,9.63
2023-04-17T15:35:08.879Z,10.60
2023-04-17T15:37:38.902Z,9.98
2023-04-17T15:40:13.222Z,11.15
2023-04-17T15:42:43.197Z,9.32
2023-04-17T15:45:12.213Z,10.55
2023-04-17T15:47:40.782Z,10.60
2023-04-17T15:50:10.460Z,11.05
2023-04-17T15:52:38.884Z,13.85
2023-04-17T15:55:08.107Z,10.70
2023-04-17T15:57:36.618Z,11.13
2023-04-17T16:00:07.459Z,11.07
2023-04-17T16:02:38.873Z,11.35
2023-04-17T16:05:08.241Z,14.02
2023-04-17T16:07:36.553Z,12.75
2023-04-17T16:10:05.237Z,16.58
2023-04-17T16:12:33.955Z,14.18
2023-04-17T16:15:04.142Z,9.95
2023-04-17T16:17:34.036Z,11.35
2023-04-17T16:20:03.728Z,10.77
2023-04-17T16:22:32.194Z,10.95
2023-04-17T16:25:01.818Z,13.82
2023-04-17T16:27:31.145Z,14.43
2023-04-17T16:29:59.677Z,13.52
2023-04-17T16:32:28.952Z,11.90
2023-04-17T16:34:58.713Z,10.35
2023-04-17T16:37:27.725Z,12.35
2023-04-17T16:40:04.652Z,10.57
2023-04-17T16:42:34.523Z,10.68
2023-04-17T16:45:04.720Z,10.80
2023-04-17T16:47:33.485Z,8.48
2023-04-17T16:50:08.005Z,14.68
2023-04-17T16:52:37.696Z,11.15
2023-04-17T16:55:09.967Z,11.23
2023-04-17T16:57:40.708Z,11.18
2023-04-17T17:00:14.674Z,11.77
2023-04-17T17:02:43.192Z,10.98
2023-04-17T17:05:16.172Z,12.73
2023-04-17T17:07:47.408Z,11.48
2023-04-17T17:10:15.958Z,12.10
2023-04-17T17:12:44.388Z,11.80
2023-04-17T17:15:13.056Z,11.52
2023-04-17T17:17:41.615Z,15.02
2023-04-17T17:20:12.587Z,11.63
2023-04-17T17:22:41.010Z,11.30
2023-04-17T17:25:10.212Z,11.82
2023-04-17T17:27:38.637Z,12.18
2023-04-17T17:30:08.333Z,14.55
2023-04-17T17:32:36.753Z,15.18
2023-04-17T17:35:05.382Z,11.20
2023-04-17T17:37:35.136Z,11.68
2023-04-17T17:40:04.448Z,10.77
2023-04-17T17:42:33.214Z,12.45
2023-04-17T17:45:01.552Z,12.30
2023-04-17T17:47:30.114Z,13.70
2023-04-17T17:50:26.538Z,10.18
2023-04-17T17:52:59.038Z,12.20
2023-04-17T17:55:27.612Z,13.20
2023-04-17T17:57:56.056Z,15.90
2023-04-17T18:00:24.483Z,16.23
2023-04-17T18:02:54.010Z,13.40
2023-04-17T18:05:22.503Z,12.45
2023-04-17T18:07:50.931Z,13.18
2023-04-17T18:10:20.768Z,10.45
2023-04-17T18:12:51.954Z,11.98
2023-04-17T18:15:20.423Z,11.23
2023-04-17T18:17:48.934Z,12.15
2023-04-17T18:20:17.441Z,11.10
2023-04-17T18:22:45.827Z,11.80
2023-04-17T18:25:14.281Z,12.00
2023-04-17T18:27:45.189Z,12.02
2023-04-17T18:30:14.838Z,14.95
2023-04-17T18:32:43.312Z,16.42
2023-04-17T18:35:11.766Z,15.88
2023-04-17T18:38:08.086Z,14.32
2023-04-17T18:40:36.624Z,14.77
2023-04-17T18:43:07.923Z,16.48
2023-04-17T18:45:36.268Z,23.08
2023-04-17T18:48:04.805Z,16.48
2023-04-17T18:50:33.350Z,19.95
2023-04-17T18:53:01.779Z,18.55
2023-04-17T18:55:30.444Z,20.45
2023-04-17T18:58:01.392Z,12.60
2023-04-17T19:00:36.521Z,19.23
2023-04-17T19:03:05.426Z,14.65
2023-04-17T19:05:33.861Z,15.27
2023-04-17T19:08:02.195Z,16.45
2023-04-17T19:10:31.114Z,17.50
2023-04-17T19:12:59.455Z,17.00
2023-04-17T19:15:30.448Z,17.60
2023-04-17T19:18:00.250Z,16.20
2023-04-17T19:20:30.523Z,15.35
2023-04-17T19:23:01.055Z,16.10
2023-04-17T19:25:29.460Z,17.50
2023-04-17T19:27:59.064Z,15.77
2023-04-17T19:30:27.673Z,17.60
2023-04-17T19:33:00.427Z,14.88
2023-04-17T19:35:32.761Z,16.17
2023-04-17T19:38:40.214Z,17.73
2023-04-17T19:45:08.936Z,19.02
2023-04-17T19:47:54.032Z,17.45
2023-04-17T19:50:53.217Z,19.77
2023-04-17T19:53:25.827Z,23.00
2023-04-17T19:55:55.162Z,18.98
2023-04-17T19:58:25.885Z,22.60
2023-04-17T20:00:54.227Z,22.42
2023-04-17T20:03:22.838Z,19.55
2023-04-17T20:05:52.724Z,22.65
2023-04-17T20:08:21.382Z,23.15
2023-04-17T20:10:50.031Z,19.42
2023-04-17T20:13:18.412Z,19.65
2023-04-17T20:15:46.828Z,19.23
2023-04-17T20:18:15.102Z,19.10
2023-04-17T20:20:43.397Z,21.70
2023-04-17T20:23:13.141Z,18.55
2023-04-17T20:25:43.750Z,23.20
2023-04-17T20:28:12.137Z,20.23
2023-04-17T20:30:41.646Z,20.30
2023-04-17T20:33:11.556Z,19.38
2023-04-17T20:35:40.038Z,22.13
2023-04-17T20:38:12.943Z,20.92
2023-04-17T20:40:43.270Z,19.23
2023-04-17T20:43:13.114Z,18.55
2023-04-17T20:45:41.553Z,22.08
2023-04-17T20:48:11.937Z,22.48
2023-04-17T20:50:49.199Z,22.45
2023-04-17T20:53:25.105Z,22.45
2023-04-17T20:55:57.881Z,20.42
2023-04-17T20:58:29.460Z,19.42
2023-04-17T21:01:01.891Z,23.65
2023-04-17T21:03:40.338Z,26.55
2023-04-17T21:06:10.734Z,25.90
2023-04-17T21:08:40.705Z,22.83
2023-04-17T21:11:09.543Z,24.95
2023-04-17T21:13:40.673Z,25.95
2023-04-17T21:16:14.774Z,23.45
2023-04-17T21:18:45.217Z,23.70
2023-04-17T21:21:16.556Z,21.88
2023-04-17T21:23:47.925Z,26.10
2023-04-17T21:26:17.772Z,25.35
2023-04-17T21:28:46.157Z,23.88
2023-04-17T21:31:17.439Z,23.77
2023-04-17T21:33:49.543Z,23.27
2023-04-17T21:36:19.572Z,23.90
2023-04-17T21:38:49.323Z,28.85
2023-04-17T21:41:17.582Z,22.75
2023-04-17T21:43:48.209Z,25.83
2023-04-17T21:46:16.623Z,25.33
2023-04-17T21:48:47.986Z,22.83
2023-04-17T21:51:19.132Z,27.33
2023-04-17T21:53:51.185Z,23.70
2023-04-17T21:56:24.006Z,22.05
2023-04-17T21:58:52.451Z,22.85
2023-04-17T22:01:20.798Z,25.75
2023-04-17T22:03:49.096Z,24.80
2023-04-17T22:06:19.988Z,26.10
2023-04-17T22:08:54.734Z,29.13
2023-04-17T22:11:23.094Z,25.80
2023-04-17T22:13:51.416Z,30.17
2023-04-17T22:16:19.689Z,26.45
2023-04-17T22:18:47.959Z,27.88
2023-04-17T22:21:16.236Z,23.58
2023-04-17T22:23:44.569Z,26.55
2023-04-17T22:26:14.424Z,24.25
2023-04-17T22:28:42.747Z,24.17
2023-04-17T22:31:11.355Z,27.48
2023-04-17T22:33:39.714Z,27.15
2023-04-17T22:36:08.120Z,23.65
2023-04-17T22:38:36.601Z,25.60
2023-04-17T22:41:05.274Z,29.45
2023-04-17T22:43:34.949Z,22.40
2023-04-17T22:46:03.297Z,23.02
2023-04-17T22:48:32.833Z,24.83
2023-04-17T22:51:01.132Z,29.30
2023-04-17T22:53:29.666Z,27.00
2023-04-17T22:56:02.102Z,26.88
2023-04-17T22:58:32.815Z,31.92
2023-04-17T23:01:02.862Z,30.45
2023-04-17T23:03:31.394Z,31.95
2023-04-17T23:05:59.751Z,30.25
2023-04-17T23:08:30.576Z,29.90
2023-04-17T23:11:00.172Z,36.58
2023-04-17T23:13:29.110Z,35.63
2023-04-17T23:15:59.652Z,33.65
2023-04-17T23:18:29.669Z,31.60
2023-04-17T23:20:58.074Z,32.75
2023-04-17T23:23:26.607Z,36.25
2023-04-17T23:25:55.328Z,33.67
2023-04-17T23:28:30.613Z,40.03
2023-04-17T23:30:59.587Z,35.33
2023-04-17T23:33:40.151Z,36.80
2023-04-17T23:36:09.148Z,33.60
2023-04-17T23:38:37.796Z,36.70
2023-04-17T23:41:06.597Z,34.00
2023-04-17T23:43:35.018Z,33.47
2023-04-17T23:46:03.385Z,34.08
2023-04-17T23:48:33.194Z,34.47
2023-04-17T23:51:01.539Z,39.05
2023-04-17T23:53:29.842Z,39.45
2023-04-17T23:55:58.133Z,32.85
2023-04-17T23:58:26.369Z,31.98
